createdAt,value
2023-05-13T00:02:13.056Z,47.06
2023-05-13T00:04:45.571Z,47.17
2023-05-13T00:07:19.044Z,47.10
2023-05-13T00:09:51.966Z,47.31
2023-05-13T00:12:24.763Z,47.18
2023-05-13T00:14:57.970Z,47.34
2023-05-13T00:17:30.805Z,47.39
2023-05-13T00:20:04.089Z,47.38
2023-05-13T00:22:38.038Z,47.37
2023-05-13T00:25:10.934Z,47.41
2023-05-13T00:27:43.843Z,47.38
2023-05-13T00:30:16.792Z,47.35
2023-05-13T00:32:49.852Z,47.37
2023-05-13T00:35:23.008Z,47.31
2023-05-13T00:37:55.632Z,47.34
2023-05-13T00:40:29.177Z,47.31
2023-05-13T00:43:02.908Z,47.36
2023-05-13T00:45:35.927Z,47.25
2023-05-13T00:48:09.026Z,47.35
2023-05-13T00:50:42.192Z,47.36
2023-05-13T00:53:16.133Z,47.27
2023-05-13T00:55:49.919Z,47.36
2023-05-13T00:58:23.010Z,47.37
2023-05-13T01:00:56.082Z,47.32
2023-05-13T01:03:28.816Z,47.35
2023-05-13T01:06:01.685Z,47.31
2023-05-13T01:08:35.095Z,47.33
2023-05-13T01:11:08.003Z,47.30
2023-05-13T01:13:40.862Z,47.25
2023-05-13T01:16:14.097Z,47.30
2023-05-13T01:18:53.114Z,47.30
2023-05-13T01:21:25.737Z,47.21
2023-05-13T01:23:58.984Z,47.26
2023-05-13T01:26:31.878Z,47.31
2023-05-13T01:29:04.875Z,47.20
2023-05-13T01:31:37.926Z,47.17
2023-05-13T01:34:11.120Z,47.20
2023-05-13T01:36:44.102Z,47.16
2023-05-13T01:39:17.292Z,47.08
2023-05-13T01:41:51.029Z,47.08
2023-05-13T01:44:23.888Z,47.15
2023-05-13T01:46:57.501Z,47.06
2023-05-13T01:49:31.147Z,47.09
2023-05-13T01:52:04.025Z,47.10
2023-05-13T01:54:36.918Z,47.12
2023-05-13T01:57:10.093Z,47.17
2023-05-13T01:59:43.147Z,47.17
2023-05-13T02:02:16.127Z,47.08
2023-05-13T02:04:49.143Z,47.07
2023-05-13T02:07:22.217Z,47.10
2023-05-13T02:09:55.761Z,47.07
2023-05-13T02:12:29.288Z,47.05
2023-05-13T02:15:03.030Z,47.02
2023-05-13T02:17:35.979Z,46.96
2023-05-13T02:20:09.110Z,46.95
2023-05-13T02:22:41.998Z,46.92
2023-05-13T02:25:14.921Z,46.92
2023-05-13T02:30:37.937Z,46.74
2023-05-13T02:33:11.157Z,46.85
2023-05-13T02:35:44.173Z,46.83
2023-05-13T02:38:17.228Z,46.88
2023-05-13T02:40:50.216Z,46.87
2023-05-13T02:43:23.163Z,46.79
2023-05-13T02:45:56.045Z,46.86
2023-05-13T02:48:29.216Z,46.81
2023-05-13T02:51:02.810Z,46.87
2023-05-13T02:53:36.181Z,46.77
2023-05-13T02:56:09.136Z,46.77
2023-05-13T02:58:42.159Z,46.77
2023-05-13T03:01:15.241Z,46.68
2023-05-13T03:03:48.103Z,46.85
2023-05-13T03:06:21.103Z,46.82
2023-05-13T03:08:54.052Z,46.83
2023-05-13T03:11:27.202Z,46.87
2023-05-13T03:14:00.003Z,46.71
2023-05-13T03:16:33.372Z,46.78
2023-05-13T03:19:05.914Z,46.81
2023-05-13T03:21:38.977Z,46.82
2023-05-13T03:24:11.945Z,46.75
2023-05-13T03:26:45.397Z,46.67
2023-05-13T03:29:19.260Z,46.62
2023-05-13T03:31:52.324Z,46.65
2023-05-13T03:34:25.064Z,46.65
2023-05-13T03:36:58.010Z,46.65
2023-05-13T03:39:31.208Z,46.63
2023-05-13T03:42:04.218Z,46.69
2023-05-13T03:44:37.262Z,46.63
2023-05-13T03:47:10.410Z,46.60
2023-05-13T03:49:46.238Z,46.56
2023-05-13T03:52:19.379Z,46.57
2023-05-13T03:54:53.122Z,46.60
2023-05-13T03:57:26.418Z,46.60
2023-05-13T04:00:00.313Z,46.59
2023-05-13T04:02:33.198Z,46.59
2023-05-13T04:05:06.336Z,46.61
2023-05-13T04:07:39.162Z,46.60
2023-05-13T04:10:18.745Z,46.61
2023-05-13T04:12:47.320Z,46.54
2023-05-13T04:15:20.336Z,46.61
2023-05-13T04:17:53.325Z,46.50
2023-05-13T04:20:26.138Z,46.48
2023-05-13T04:22:59.362Z,46.52
2023-05-13T04:25:37.932Z,46.51
2023-05-13T04:28:11.259Z,46.47
2023-05-13T04:30:44.360Z,46.54
2023-05-13T04:33:17.130Z,46.52
2023-05-13T04:35:50.096Z,46.57
2023-05-13T04:38:23.405Z,46.46
2023-05-13T04:40:56.054Z,46.45
2023-05-13T04:43:29.200Z,46.53
2023-05-13T04:46:06.124Z,46.49
2023-05-13T04:48:39.318Z,46.53
2023-05-13T04:51:12.207Z,46.52
2023-05-13T04:53:45.431Z,46.48
2023-05-13T04:56:19.197Z,46.50
2023-05-13T04:58:52.784Z,46.60
2023-05-13T05:01:26.643Z,46.60
2023-05-13T05:04:00.484Z,46.66
2023-05-13T05:06:33.394Z,46.71
2023-05-13T05:09:06.016Z,46.57
2023-05-13T05:11:39.204Z,46.59
2023-05-13T05:14:12.628Z,46.69
2023-05-13T05:16:46.331Z,46.68
2023-05-13T05:19:33.646Z,46.60
2023-05-13T05:22:07.482Z,46.74
2023-05-13T05:24:41.634Z,46.72
2023-05-13T05:27:15.523Z,46.75
2023-05-13T05:29:49.550Z,46.64
2023-05-13T05:32:23.466Z,46.73
2023-05-13T05:34:56.407Z,46.73
2023-05-13T05:37:29.235Z,46.70
2023-05-13T05:40:02.209Z,46.78
2023-05-13T05:42:35.454Z,46.78
2023-05-13T05:45:08.358Z,46.74
2023-05-13T05:47:41.458Z,46.76
2023-05-13T05:50:14.168Z,46.80
2023-05-13T05:52:47.476Z,46.78
2023-05-13T05:55:20.253Z,46.71
2023-05-13T05:57:53.561Z,46.86
2023-05-13T06:00:27.475Z,46.76
2023-05-13T06:03:00.628Z,46.86
2023-05-13T06:05:40.489Z,46.87
2023-05-13T06:08:13.159Z,46.83
2023-05-13T06:10:46.685Z,46.85
2023-05-13T06:13:20.436Z,46.92
2023-05-13T06:15:53.624Z,46.86
2023-05-13T06:18:27.641Z,46.88
2023-05-13T06:21:01.598Z,46.85
2023-05-13T06:23:35.492Z,46.91
2023-05-13T06:26:08.693Z,46.92
2023-05-13T06:28:42.509Z,46.88
2023-05-13T06:31:15.542Z,46.96
2023-05-13T06:33:48.533Z,46.93
2023-05-13T06:36:21.285Z,46.94
2023-05-13T06:38:54.498Z,46.94
2023-05-13T06:41:27.286Z,47.02
2023-05-13T06:44:00.614Z,47.03
2023-05-13T06:46:48.611Z,47.10
2023-05-13T06:49:21.354Z,47.13
2023-05-13T06:51:54.379Z,47.17
2023-05-13T06:54:27.726Z,47.21
2023-05-13T06:57:01.509Z,47.25
2023-05-13T06:59:34.550Z,47.19
2023-05-13T07:02:07.648Z,47.30
2023-05-13T07:04:40.542Z,47.37
2023-05-13T07:07:13.536Z,47.34
2023-05-13T07:09:49.308Z,47.34
2023-05-13T07:12:22.600Z,47.37
2023-05-13T07:14:55.472Z,47.35
2023-05-13T07:17:28.785Z,47.42
2023-05-13T07:20:01.637Z,47.42
2023-05-13T07:22:34.352Z,47.47
2023-05-13T07:25:07.237Z,47.51
2023-05-13T07:27:40.495Z,47.48
2023-05-13T07:30:13.364Z,47.58
2023-05-13T07:32:46.680Z,47.55
2023-05-13T07:35:19.687Z,47.63
2023-05-13T07:37:52.350Z,47.62
2023-05-13T07:40:25.405Z,47.63
2023-05-13T07:42:58.355Z,47.65
2023-05-13T07:45:31.278Z,47.72
2023-05-13T07:48:04.308Z,47.62
2023-05-13T07:50:37.411Z,47.74
2023-05-13T07:53:10.256Z,47.68
2023-05-13T07:55:43.579Z,47.73
2023-05-13T07:58:16.617Z,47.55
2023-05-13T08:00:49.426Z,47.18
2023-05-13T08:03:22.365Z,46.06
2023-05-13T08:05:58.373Z,46.66
2023-05-13T08:08:31.618Z,46.40
2023-05-13T08:11:04.311Z,46.23
2023-05-13T08:13:37.685Z,46.88
2023-05-13T08:16:10.338Z,46.63
2023-05-13T08:18:43.799Z,46.87
2023-05-13T08:21:16.418Z,46.34
2023-05-13T08:23:49.657Z,46.44
2023-05-13T08:26:22.558Z,46.52
2023-05-13T08:28:55.513Z,46.51
2023-05-13T08:31:28.343Z,46.50
2023-05-13T08:34:01.453Z,46.63
2023-05-13T08:36:34.430Z,46.54
2023-05-13T08:39:07.977Z,46.59
2023-05-13T08:41:41.657Z,46.55
2023-05-13T08:44:14.710Z,46.36
2023-05-13T08:46:47.707Z,46.50
2023-05-13T08:49:20.684Z,46.39
2023-05-13T08:51:53.678Z,46.53
2023-05-13T08:54:26.496Z,46.39
2023-05-13T08:56:59.545Z,46.45
2023-05-13T08:59:32.755Z,46.31
2023-05-13T09:02:05.633Z,46.24
2023-05-13T09:04:38.405Z,46.21
2023-05-13T09:07:11.368Z,46.26
2023-05-13T09:09:44.782Z,46.27
2023-05-13T09:12:17.731Z,46.31
2023-05-13T09:14:51.257Z,46.36
2023-05-13T09:17:24.399Z,46.41
2023-05-13T09:19:57.481Z,46.41
2023-05-13T09:22:30.762Z,46.61
2023-05-13T09:25:03.653Z,46.48
2023-05-13T09:27:36.643Z,46.49
2023-05-13T09:30:09.404Z,46.48
2023-05-13T09:32:42.470Z,46.49
2023-05-13T09:35:15.547Z,46.53
2023-05-13T09:37:48.559Z,46.52
2023-05-13T09:40:21.946Z,46.55
2023-05-13T09:42:54.972Z,46.54
2023-05-13T09:45:28.704Z,46.58
2023-05-13T09:48:01.779Z,46.61
2023-05-13T09:50:34.700Z,46.63
2023-05-13T09:53:07.687Z,46.65
2023-05-13T09:55:40.696Z,46.63
2023-05-13T09:58:13.766Z,46.66
2023-05-13T10:00:46.868Z,46.68
2023-05-13T10:03:19.572Z,46.70
2023-05-13T10:05:52.862Z,46.60
2023-05-13T10:08:25.628Z,46.59
2023-05-13T10:10:58.842Z,46.57
2023-05-13T10:13:31.883Z,46.54
2023-05-13T10:16:04.784Z,46.51
2023-05-13T10:18:37.796Z,46.51
2023-05-13T10:21:10.760Z,46.51
2023-05-13T10:23:43.747Z,46.57
2023-05-13T10:26:16.604Z,46.57
2023-05-13T10:28:49.863Z,46.60
2023-05-13T10:31:22.782Z,46.58
2023-05-13T10:33:55.739Z,46.59
2023-05-13T10:36:28.915Z,46.63
2023-05-13T10:39:01.896Z,46.63
2023-05-13T10:41:34.755Z,46.63
2023-05-13T10:44:09.305Z,46.63
2023-05-13T10:46:40.804Z,46.59
2023-05-13T10:49:14.172Z,46.63
2023-05-13T10:52:01.951Z,46.64
2023-05-13T10:54:34.701Z,46.66
2023-05-13T10:57:07.736Z,46.61
2023-05-13T10:59:40.800Z,46.64
2023-05-13T11:02:13.743Z,46.68
2023-05-13T11:04:46.871Z,46.67
2023-05-13T11:07:19.882Z,46.65
2023-05-13T11:09:52.889Z,46.62
2023-05-13T11:12:25.653Z,46.67
2023-05-13T11:14:58.931Z,46.64
2023-05-13T11:17:32.000Z,46.66
2023-05-13T11:20:15.229Z,46.66
2023-05-13T11:22:48.581Z,46.69
2023-05-13T11:25:21.752Z,46.64
2023-05-13T11:27:54.559Z,46.67
2023-05-13T11:30:27.993Z,46.68
2023-05-13T11:33:00.797Z,46.67
2023-05-13T11:35:33.854Z,46.64
2023-05-13T11:38:06.621Z,46.68
2023-05-13T11:40:39.579Z,46.68
2023-05-13T11:43:12.622Z,46.69
2023-05-13T11:45:45.731Z,46.69
2023-05-13T11:48:18.899Z,46.71
2023-05-13T11:50:51.791Z,46.72
2023-05-13T11:53:24.732Z,46.73
2023-05-13T11:55:57.979Z,46.70
2023-05-13T11:58:30.902Z,46.72
2023-05-13T12:01:03.731Z,46.71
2023-05-13T12:03:36.673Z,46.74
2023-05-13T12:06:10.128Z,46.75
2023-05-13T12:08:43.632Z,46.71
2023-05-13T12:11:16.864Z,46.77
2023-05-13T12:13:50.009Z,46.73
2023-05-13T12:16:22.828Z,46.77
2023-05-13T12:18:55.894Z,46.70
2023-05-13T12:21:28.903Z,46.72
2023-05-13T12:24:02.008Z,46.70
2023-05-13T12:26:34.906Z,46.68
2023-05-13T12:29:09.874Z,46.65
2023-05-13T12:31:42.998Z,46.73
2023-05-13T12:34:15.915Z,46.71
2023-05-13T12:36:49.287Z,46.72
2023-05-13T12:39:23.128Z,46.74
2023-05-13T12:41:56.037Z,46.74
2023-05-13T12:44:29.056Z,46.72
2023-05-13T12:47:02.154Z,46.74
2023-05-13T12:49:34.672Z,46.75
2023-05-13T12:52:07.684Z,46.71
2023-05-13T12:54:40.976Z,46.77
2023-05-13T12:57:13.824Z,46.77
2023-05-13T12:59:46.912Z,46.77
2023-05-13T13:02:19.978Z,46.76
2023-05-13T13:04:52.902Z,46.78
2023-05-13T13:07:25.942Z,46.86
2023-05-13T13:09:58.889Z,46.77
2023-05-13T13:12:31.839Z,46.76
2023-05-13T13:15:04.842Z,46.81
2023-05-13T13:17:37.752Z,46.79
2023-05-13T13:20:10.713Z,46.79
2023-05-13T13:22:49.849Z,46.77
2023-05-13T13:25:23.134Z,46.85
2023-05-13T13:27:55.874Z,46.77
2023-05-13T13:30:29.013Z,46.81
2023-05-13T13:33:01.906Z,46.86
2023-05-13T13:35:34.749Z,46.89
2023-05-13T13:38:07.972Z,46.81
2023-05-13T13:40:40.853Z,46.83
2023-05-13T13:43:14.198Z,46.84
2023-05-13T13:45:48.106Z,46.81
2023-05-13T13:48:21.118Z,46.86
2023-05-13T13:50:54.035Z,46.82
2023-05-13T13:53:27.134Z,46.85
2023-05-13T13:56:00.232Z,46.87
2023-05-13T13:58:33.029Z,46.88
2023-05-13T14:01:05.838Z,46.88
2023-05-13T14:03:38.916Z,46.88
2023-05-13T14:06:11.861Z,46.79
2023-05-13T14:08:45.178Z,46.74
2023-05-13T14:11:18.100Z,46.63
2023-05-13T14:13:51.204Z,46.55
2023-05-13T14:16:23.958Z,46.50
2023-05-13T14:18:57.253Z,46.41
2023-05-13T14:21:30.376Z,46.35
2023-05-13T14:24:04.112Z,46.24
2023-05-13T14:26:37.105Z,46.27
2023-05-13T14:29:10.280Z,46.18
2023-05-13T14:31:48.097Z,46.17
2023-05-13T14:34:25.017Z,46.14
2023-05-13T14:36:58.148Z,46.11
2023-05-13T14:39:31.243Z,46.06
2023-05-13T14:42:03.969Z,45.91
2023-05-13T14:44:37.096Z,45.94
2023-05-13T14:47:10.044Z,45.84
2023-05-13T14:49:42.882Z,45.84
2023-05-13T14:52:16.106Z,45.69
2023-05-13T14:54:49.018Z,45.71
2023-05-13T14:57:22.206Z,45.65
2023-05-13T14:59:55.127Z,45.57
2023-05-13T15:02:28.186Z,45.50
2023-05-13T15:05:01.100Z,45.47
2023-05-13T15:07:33.852Z,45.40
2023-05-13T15:10:06.903Z,45.36
2023-05-13T15:12:39.930Z,45.34
2023-05-13T15:15:13.167Z,45.38
2023-05-13T15:17:46.431Z,45.46
2023-05-13T15:20:20.389Z,45.54
2023-05-13T15:22:53.253Z,45.62
2023-05-13T15:25:26.222Z,45.66
2023-05-13T15:27:59.224Z,45.71
2023-05-13T15:30:32.319Z,45.74
2023-05-13T15:33:05.105Z,45.80
2023-05-13T15:35:38.164Z,45.82
2023-05-13T15:38:11.184Z,45.85
2023-05-13T15:40:44.601Z,45.88
2023-05-13T15:43:17.967Z,45.86
2023-05-13T15:45:51.215Z,45.88
2023-05-13T15:48:24.352Z,45.94
2023-05-13T15:50:57.270Z,45.94
2023-05-13T15:53:30.410Z,45.97
2023-05-13T15:56:04.190Z,45.95
2023-05-13T15:58:36.974Z,45.97
2023-05-13T16:01:10.237Z,45.96
2023-05-13T16:03:42.957Z,45.98
2023-05-13T16:06:15.965Z,46.00
2023-05-13T16:08:49.169Z,46.00
2023-05-13T16:11:35.960Z,46.03
2023-05-13T16:14:09.294Z,46.03
2023-05-13T16:16:46.554Z,46.03
2023-05-13T16:19:19.027Z,46.07
2023-05-13T16:21:51.966Z,46.04
2023-05-13T16:24:25.152Z,46.01
2023-05-13T16:26:58.995Z,45.91
2023-05-13T16:29:34.166Z,45.93
2023-05-13T16:32:06.997Z,45.82
2023-05-13T16:34:40.006Z,45.72
2023-05-13T16:37:13.324Z,45.68
2023-05-13T16:39:47.010Z,45.64
2023-05-13T16:42:20.023Z,45.64
2023-05-13T16:44:53.225Z,45.64
2023-05-13T16:47:26.218Z,45.64
2023-05-13T16:49:59.133Z,45.59
2023-05-13T16:52:32.424Z,45.58
2023-05-13T16:55:05.043Z,45.54
2023-05-13T16:57:41.009Z,45.47
2023-05-13T17:00:14.131Z,45.60
2023-05-13T17:02:47.545Z,45.69
2023-05-13T17:05:20.505Z,45.71
2023-05-13T17:07:54.437Z,45.74
2023-05-13T17:10:27.285Z,45.78
2023-05-13T17:13:00.176Z,45.75
2023-05-13T17:15:47.455Z,45.73
2023-05-13T17:18:20.100Z,45.66
2023-05-13T17:20:53.482Z,45.58
2023-05-13T17:23:26.462Z,45.58
2023-05-13T17:25:59.474Z,45.53
2023-05-13T17:28:32.410Z,45.50
2023-05-13T17:31:05.403Z,45.48
2023-05-13T17:33:38.402Z,45.41
2023-05-13T17:36:11.404Z,45.39
2023-05-13T17:38:44.584Z,45.38
2023-05-13T17:41:18.436Z,45.37
2023-05-13T17:43:51.336Z,45.28
2023-05-13T17:46:24.688Z,45.27
2023-05-13T17:48:59.492Z,45.25
2023-05-13T17:51:32.524Z,45.10
2023-05-13T17:54:05.366Z,45.00
2023-05-13T17:56:38.391Z,44.86
2023-05-13T17:59:11.388Z,44.82
2023-05-13T18:01:44.579Z,44.72
2023-05-13T18:04:17.509Z,44.67
2023-05-13T18:06:50.514Z,44.65
2023-05-13T18:09:23.384Z,44.77
2023-05-13T18:11:56.513Z,44.86
2023-05-13T18:14:29.462Z,44.93
2023-05-13T18:17:02.536Z,45.00
2023-05-13T18:19:35.416Z,45.07
2023-05-13T18:22:08.432Z,45.11
2023-05-13T18:24:41.472Z,45.18
2023-05-13T18:27:14.477Z,45.22
2023-05-13T18:29:47.550Z,45.27
2023-05-13T18:32:20.474Z,45.28
2023-05-13T18:34:53.599Z,45.32
2023-05-13T18:37:26.686Z,45.40
2023-05-13T18:40:00.369Z,45.41
2023-05-13T18:42:33.584Z,45.46
2023-05-13T18:45:06.448Z,45.48
2023-05-13T18:47:39.545Z,45.51
2023-05-13T18:50:12.465Z,45.56
2023-05-13T18:52:45.603Z,45.56
2023-05-13T18:55:18.527Z,45.60
2023-05-13T18:57:51.665Z,45.61
2023-05-13T19:00:25.698Z,45.62
2023-05-13T19:03:13.881Z,45.61
2023-05-13T19:05:47.639Z,45.48
2023-05-13T19:08:20.471Z,45.41
2023-05-13T19:10:53.692Z,45.47
2023-05-13T19:13:39.477Z,45.36
2023-05-13T19:16:01.574Z,45.30
2023-05-13T19:18:34.654Z,45.25
2023-05-13T19:21:07.849Z,45.21
2023-05-13T19:23:41.689Z,45.06
2023-05-13T19:26:15.527Z,45.03
2023-05-13T19:28:48.875Z,45.06
2023-05-13T19:31:22.479Z,45.05
2023-05-13T19:33:59.583Z,45.06
2023-05-13T19:36:32.589Z,45.07
2023-05-13T19:39:05.834Z,45.14
2023-05-13T19:41:39.681Z,45.10
2023-05-13T19:44:12.588Z,45.15
2023-05-13T19:46:45.755Z,45.17
2023-05-13T19:49:18.274Z,45.15
2023-05-13T19:51:51.662Z,45.21
2023-05-13T19:54:24.601Z,44.79
2023-05-13T19:56:57.681Z,45.10
2023-05-13T19:59:30.581Z,45.11
2023-05-13T20:02:03.798Z,45.11
2023-05-13T20:04:37.701Z,45.13
2023-05-13T20:07:10.766Z,45.09
2023-05-13T20:09:44.518Z,45.12
2023-05-13T20:12:17.302Z,45.16
2023-05-13T20:14:50.315Z,45.16
2023-05-13T20:17:23.347Z,45.18
2023-05-13T20:19:56.791Z,45.18
2023-05-13T20:22:29.516Z,45.16
2023-05-13T20:25:02.822Z,45.13
2023-05-13T20:27:36.656Z,45.12
2023-05-13T20:30:09.485Z,45.13
2023-05-13T20:32:42.754Z,45.10
2023-05-13T20:35:15.546Z,45.12
2023-05-13T20:37:48.746Z,45.14
2023-05-13T20:40:21.913Z,45.13
2023-05-13T20:42:54.643Z,45.14
2023-05-13T20:45:27.715Z,45.13
2023-05-13T20:48:00.935Z,45.14
2023-05-13T20:50:34.718Z,45.18
2023-05-13T20:53:07.356Z,45.13
2023-05-13T20:55:40.732Z,45.11
2023-05-13T20:58:13.571Z,45.08
2023-05-13T21:00:46.905Z,45.09
2023-05-13T21:03:20.693Z,45.10
2023-05-13T21:05:53.663Z,45.08
2023-05-13T21:08:26.573Z,45.09
2023-05-13T21:10:59.779Z,44.73
2023-05-13T21:13:32.578Z,44.37
2023-05-13T21:16:05.838Z,44.80
2023-05-13T21:18:38.799Z,44.85
2023-05-13T21:21:11.436Z,44.81
2023-05-13T21:23:44.633Z,44.71
2023-05-13T21:26:23.357Z,44.89
2023-05-13T21:28:56.752Z,44.85
2023-05-13T21:31:29.883Z,44.76
2023-05-13T21:34:02.832Z,44.74
2023-05-13T21:36:35.672Z,44.66
2023-05-13T21:39:08.711Z,44.83
2023-05-13T21:41:41.452Z,44.82
2023-05-13T21:44:14.714Z,44.86
2023-05-13T21:46:48.024Z,44.77
2023-05-13T21:49:21.693Z,44.83
2023-05-13T21:51:54.623Z,44.74
2023-05-13T21:54:27.657Z,44.79
2023-05-13T21:57:04.267Z,44.81
2023-05-13T21:59:37.656Z,44.78
2023-05-13T22:02:10.561Z,44.98
2023-05-13T22:04:43.804Z,45.04
2023-05-13T22:07:16.764Z,45.09
2023-05-13T22:09:50.601Z,45.03
2023-05-13T22:12:22.481Z,45.02
2023-05-13T22:14:55.976Z,45.05
2023-05-13T22:17:29.989Z,45.13
2023-05-13T22:20:02.729Z,45.16
2023-05-13T22:22:35.896Z,45.12
2023-05-13T22:25:08.894Z,45.06
2023-05-13T22:27:41.493Z,45.07
2023-05-13T22:30:14.862Z,45.11
2023-05-13T22:32:47.978Z,45.06
2023-05-13T22:35:21.826Z,45.17
2023-05-13T22:37:54.739Z,45.05
2023-05-13T22:40:27.783Z,45.19
2023-05-13T22:43:00.719Z,45.10
2023-05-13T22:45:33.891Z,45.18
2023-05-13T22:48:06.547Z,45.22
2023-05-13T22:50:39.770Z,45.28
2023-05-13T22:53:12.691Z,45.28
2023-05-13T22:55:45.932Z,45.37
2023-05-13T22:58:18.872Z,45.29
2023-05-13T23:00:52.009Z,45.15
2023-05-13T23:03:26.148Z,45.12
2023-05-13T23:05:59.924Z,45.18
2023-05-13T23:08:33.054Z,45.13
2023-05-13T23:11:06.557Z,45.15
2023-05-13T23:13:39.842Z,45.13
2023-05-13T23:16:12.825Z,45.03
2023-05-13T23:18:49.838Z,45.21
2023-05-13T23:21:22.904Z,45.04
2023-05-13T23:23:56.039Z,45.07
2023-05-13T23:26:28.959Z,45.06
2023-05-13T23:29:02.007Z,45.13
2023-05-13T23:31:35.091Z,45.00
2023-05-13T23:34:08.873Z,45.21
2023-05-13T23:36:41.972Z,45.32
2023-05-13T23:39:14.776Z,45.18
2023-05-13T23:41:48.233Z,45.26
2023-05-13T23:44:21.872Z,45.13
2023-05-13T23:46:54.977Z,45.22
2023-05-13T23:49:27.837Z,45.33
2023-05-13T23:52:00.989Z,45.30
2023-05-13T23:54:34.248Z,45.35
2023-05-13T23:57:07.921Z,45.28
2023-05-13T23:59:41.080Z,45.35
